createdAt,value
2018-04-12T00:01:45.964Z,6.00
2018-04-12T00:04:14.203Z,5.90
2018-04-12T00:06:41.705Z,5.90
2018-04-12T00:09:09.198Z,6.00
2018-04-12T00:11:36.707Z,6.10
2018-04-12T00:14:04.941Z,6.20
2018-04-12T00:16:32.420Z,6.20
2018-04-12T00:18:59.904Z,6.10
2018-04-12T00:21:28.161Z,6.00
2018-04-12T00:23:55.664Z,6.00
2018-04-12T00:26:23.148Z,5.90
2018-04-12T00:28:50.656Z,5.90
2018-04-12T00:31:18.143Z,5.90
2018-04-12T00:33:45.668Z,5.90
2018-04-12T00:36:13.246Z,5.80
2018-04-12T00:38:40.773Z,5.80
2018-04-12T00:41:08.247Z,5.80
2018-04-12T00:43:35.737Z,5.70
2018-04-12T00:46:03.676Z,5.70
2018-04-12T00:48:31.149Z,5.70
2018-04-12T00:50:59.386Z,5.60
2018-04-12T00:53:38.701Z,5.60
2018-04-12T00:56:06.204Z,5.60
2018-04-12T00:58:33.676Z,5.50
2018-04-12T01:01:01.941Z,5.40
2018-04-12T01:03:30.199Z,5.40
2018-04-12T01:05:57.682Z,5.40
2018-04-12T01:08:27.319Z,5.50
2018-04-12T01:10:54.903Z,5.50
2018-04-12T01:13:22.390Z,5.50
2018-04-12T01:15:49.866Z,5.50
2018-04-12T01:18:17.350Z,5.40
2018-04-12T01:20:45.680Z,5.40
2018-04-12T01:23:13.214Z,5.40
2018-04-12T01:25:40.694Z,5.40
2018-04-12T01:28:08.165Z,5.30
2018-04-12T01:30:35.671Z,5.40
2018-04-12T01:33:16.086Z,5.30
2018-04-12T01:35:43.574Z,5.30
2018-04-12T01:38:11.814Z,5.20
2018-04-12T01:40:39.309Z,5.20
2018-04-12T01:43:07.555Z,5.40
2018-04-12T01:45:35.053Z,5.30
2018-04-12T01:48:03.301Z,5.20
2018-04-12T01:50:30.786Z,5.20
2018-04-12T01:52:59.014Z,5.10
2018-04-12T01:55:26.511Z,5.20
2018-04-12T01:57:54.745Z,5.10
2018-04-12T02:00:22.254Z,5.00
2018-04-12T02:02:50.535Z,5.00
2018-04-12T02:05:18.764Z,5.10
2018-04-12T02:07:46.353Z,5.10
2018-04-12T02:10:13.821Z,5.20
2018-04-12T02:12:41.411Z,5.20
2018-04-12T02:15:08.955Z,5.10
2018-04-12T02:17:37.215Z,5.00
2018-04-12T02:20:04.704Z,5.00
2018-04-12T02:22:32.185Z,5.10
2018-04-12T02:24:59.681Z,5.00
2018-04-12T02:27:27.189Z,4.90
2018-04-12T02:29:54.674Z,4.90
2018-04-12T02:32:22.157Z,5.00
2018-04-12T02:34:49.673Z,4.90
2018-04-12T02:37:17.129Z,4.90
2018-04-12T02:39:44.609Z,4.90
2018-04-12T02:42:12.869Z,4.80
2018-04-12T02:44:40.328Z,4.80
2018-04-12T02:47:07.797Z,4.80
2018-04-12T02:49:35.267Z,4.80
2018-04-12T02:52:02.735Z,4.80
2018-04-12T02:54:30.204Z,4.70
2018-04-12T02:56:57.694Z,4.70
2018-04-12T02:59:25.193Z,4.70
2018-04-12T03:01:52.686Z,4.70
2018-04-12T03:04:20.966Z,4.70
2018-04-12T03:06:48.428Z,4.70
2018-04-12T03:09:16.680Z,4.60
2018-04-12T03:11:44.154Z,4.60
2018-04-12T03:14:11.646Z,4.50
2018-04-12T03:16:39.121Z,4.60
2018-04-12T03:19:06.634Z,4.50
2018-04-12T03:21:34.114Z,4.50
2018-04-12T03:24:02.340Z,4.50
2018-04-12T03:26:29.841Z,4.40
2018-04-12T03:28:58.063Z,4.40
2018-04-12T03:31:25.578Z,4.40
2018-04-12T03:33:53.818Z,4.50
2018-04-12T03:36:21.312Z,4.50
2018-04-12T03:38:49.551Z,4.40
2018-04-12T03:41:17.044Z,4.40
2018-04-12T03:43:45.296Z,4.40
2018-04-12T03:46:12.793Z,4.40
2018-04-12T03:48:41.116Z,4.40
2018-04-12T03:51:09.315Z,4.50
2018-04-12T03:53:36.811Z,4.40
2018-04-12T03:56:04.288Z,4.50
2018-04-12T03:58:31.765Z,4.50
2018-04-12T04:00:59.238Z,4.50
2018-04-12T04:03:26.736Z,4.50
2018-04-12T04:05:55.005Z,4.40
2018-04-12T04:08:23.238Z,4.30
2018-04-12T04:10:50.719Z,4.30
2018-04-12T04:13:18.198Z,4.30
2018-04-12T04:19:00.564Z,4.30
2018-04-12T04:21:28.050Z,4.20
2018-04-12T04:23:55.567Z,4.20
2018-04-12T04:26:23.056Z,4.30
2018-04-12T04:28:50.536Z,4.40
2018-04-12T04:31:18.029Z,4.40
2018-04-12T04:33:45.522Z,4.60
2018-04-12T04:36:13.012Z,4.80
2018-04-12T04:38:40.821Z,4.80
2018-04-12T04:41:08.316Z,4.70
2018-04-12T04:43:35.800Z,4.60
2018-04-12T04:46:04.090Z,4.50
2018-04-12T04:48:32.361Z,4.50
2018-04-12T04:51:00.645Z,4.50
2018-04-12T04:53:29.977Z,4.60
2018-04-12T04:55:57.506Z,4.60
2018-04-12T04:58:25.791Z,4.70
2018-04-12T05:00:54.036Z,4.90
2018-04-12T05:03:21.567Z,4.80
2018-04-12T05:05:49.063Z,5.00
2018-04-12T05:08:16.563Z,5.20
2018-04-12T05:10:44.057Z,5.40
2018-04-12T05:13:11.534Z,5.50
2018-04-12T05:15:39.159Z,5.60
2018-04-12T05:18:06.513Z,5.70
2018-04-12T05:20:34.017Z,5.80
2018-04-12T05:23:01.489Z,5.90
2018-04-12T05:25:28.985Z,6.00
2018-04-12T05:27:56.476Z,6.10
2018-04-12T05:30:23.985Z,6.20
2018-04-12T05:32:52.284Z,6.40
2018-04-12T05:35:19.799Z,6.30
2018-04-12T05:37:47.377Z,6.50
2018-04-12T05:40:15.630Z,6.60
2018-04-12T05:42:43.118Z,6.60
2018-04-12T05:45:11.368Z,6.80
2018-04-12T05:47:38.859Z,6.80
2018-04-12T05:50:07.118Z,7.00
2018-04-12T05:52:34.596Z,6.90
2018-04-12T05:55:02.842Z,7.10
2018-04-12T05:57:30.318Z,7.10
2018-04-12T05:59:58.566Z,7.20
2018-04-12T06:02:26.870Z,7.30
2018-04-12T06:04:55.126Z,7.40
2018-04-12T06:07:22.681Z,7.40
2018-04-12T06:09:50.155Z,7.50
2018-04-12T06:12:17.638Z,7.60
2018-04-12T06:14:45.369Z,7.70
2018-04-12T06:17:12.881Z,7.70
2018-04-12T06:19:40.365Z,7.80
2018-04-12T06:22:08.634Z,7.90
2018-04-12T06:24:36.126Z,7.90
2018-04-12T06:27:03.618Z,8.00
2018-04-12T06:29:31.108Z,8.00
2018-04-12T06:31:58.791Z,8.00
2018-04-12T06:34:26.288Z,8.10
2018-04-12T06:36:54.563Z,8.40
2018-04-12T06:39:22.841Z,8.40
2018-04-12T06:41:51.139Z,8.40
2018-04-12T06:44:18.892Z,8.40
2018-04-12T06:46:46.432Z,8.30
2018-04-12T06:49:13.917Z,8.40
2018-04-12T06:51:41.401Z,8.40
2018-04-12T06:54:08.963Z,8.40
2018-04-12T06:56:37.240Z,8.40
2018-04-12T06:59:04.733Z,8.40
2018-04-12T07:01:32.255Z,8.40
2018-04-12T07:03:59.775Z,8.40
2018-04-12T07:06:28.141Z,8.20
2018-04-12T07:08:55.641Z,8.20
2018-04-12T07:11:23.117Z,8.40
2018-04-12T07:13:50.614Z,8.60
2018-04-12T07:16:18.239Z,8.60
2018-04-12T07:18:45.732Z,8.70
2018-04-12T07:21:13.217Z,8.70
2018-04-12T07:23:40.708Z,8.80
2018-04-12T07:26:08.284Z,8.90
2018-04-12T07:28:35.780Z,9.10
2018-04-12T07:31:04.219Z,9.20
2018-04-12T07:33:31.820Z,9.20
2018-04-12T07:35:59.300Z,9.30
2018-04-12T07:38:28.301Z,9.30
2018-04-12T07:40:55.802Z,9.30
2018-04-12T07:43:23.277Z,9.30
2018-04-12T07:45:50.764Z,9.40
2018-04-12T07:48:19.057Z,9.40
2018-04-12T07:50:46.556Z,9.40
2018-04-12T07:53:14.057Z,9.40
2018-04-12T07:55:41.577Z,9.50
2018-04-12T07:58:09.081Z,9.50
2018-04-12T08:00:37.329Z,9.60
2018-04-12T08:03:04.808Z,9.50
2018-04-12T08:05:33.069Z,9.60
2018-04-12T08:08:00.562Z,9.60
2018-04-12T08:10:28.876Z,9.90
2018-04-12T08:12:56.352Z,9.90
2018-04-12T08:15:23.916Z,9.90
2018-04-12T08:17:51.417Z,10.10
2018-04-12T08:20:18.949Z,10.20
2018-04-12T08:22:46.470Z,10.20
2018-04-12T08:25:13.954Z,10.40
2018-04-12T08:27:41.473Z,10.60
2018-04-12T08:30:08.975Z,10.70
2018-04-12T08:32:36.655Z,10.90
2018-04-12T08:35:04.159Z,11.00
2018-04-12T08:37:31.676Z,11.20
2018-04-12T08:39:59.917Z,11.40
2018-04-12T08:42:27.457Z,11.30
2018-04-12T08:44:54.949Z,11.40
2018-04-12T08:47:22.486Z,11.40
2018-04-12T08:49:49.999Z,11.60
2018-04-12T08:52:17.509Z,11.60
2018-04-12T08:54:45.127Z,11.60
2018-04-12T08:57:13.432Z,11.80
2018-04-12T08:59:41.687Z,11.80
2018-04-12T09:02:09.197Z,11.80
2018-04-12T09:04:36.736Z,11.70
2018-04-12T09:07:04.227Z,11.80
2018-04-12T09:09:31.736Z,11.90
2018-04-12T09:11:59.226Z,11.90
2018-04-12T09:14:26.758Z,11.90
2018-04-12T09:16:54.228Z,12.00
2018-04-12T09:19:21.721Z,11.90
2018-04-12T09:21:49.276Z,11.80
2018-04-12T09:24:16.776Z,11.70
2018-04-12T09:26:45.025Z,11.90
2018-04-12T09:29:12.502Z,11.90
2018-04-12T09:31:40.816Z,12.50
2018-04-12T09:34:08.320Z,12.50
2018-04-12T09:36:35.816Z,12.70
2018-04-12T09:39:03.351Z,13.00
2018-04-12T09:41:30.857Z,13.50
2018-04-12T09:43:58.366Z,13.80
2018-04-12T09:46:25.854Z,13.90
2018-04-12T09:48:53.354Z,14.30
2018-04-12T09:51:20.862Z,14.20
2018-04-12T09:53:49.113Z,14.00
2018-04-12T09:56:16.631Z,14.00
2018-04-12T09:58:44.174Z,13.90
2018-04-12T10:01:15.606Z,13.90
2018-04-12T10:03:43.886Z,14.00
2018-04-12T10:06:27.075Z,14.20
2018-04-12T10:09:00.432Z,14.20
2018-04-12T10:11:28.690Z,15.20
2018-04-12T10:13:56.949Z,15.90
2018-04-12T10:16:25.309Z,17.10
2018-04-12T10:18:52.790Z,17.10
2018-04-12T10:21:21.060Z,19.50
2018-04-12T10:23:49.531Z,20.60
2018-04-12T10:26:17.115Z,20.60
2018-04-12T10:28:45.376Z,21.70
2018-04-12T10:31:12.863Z,21.60
2018-04-12T10:33:40.353Z,21.50
2018-04-12T10:36:07.841Z,20.90
2018-04-12T10:38:35.316Z,20.10
2018-04-12T10:41:02.955Z,19.90
2018-04-12T10:43:30.581Z,20.00
2018-04-12T10:45:58.088Z,20.70
2018-04-12T10:48:25.589Z,20.20
2018-04-12T10:50:53.097Z,20.30
2018-04-12T10:53:20.601Z,19.20
2018-04-12T10:55:48.237Z,17.80
2018-04-12T10:58:15.725Z,17.00
2018-04-12T11:00:43.216Z,17.00
2018-04-12T11:03:11.571Z,16.50
2018-04-12T11:05:39.072Z,16.50
2018-04-12T11:08:06.578Z,16.80
2018-04-12T11:10:34.070Z,16.60
2018-04-12T11:13:21.134Z,16.10
2018-04-12T11:15:49.378Z,16.10
2018-04-12T11:18:16.916Z,16.10
2018-04-12T11:20:44.412Z,16.10
2018-04-12T11:23:11.998Z,16.10
2018-04-12T11:25:39.663Z,16.10
2018-04-12T11:28:07.227Z,16.20
2018-04-12T11:30:35.478Z,16.60
2018-04-12T11:33:02.986Z,16.60
2018-04-12T11:35:30.522Z,17.20
2018-04-12T11:37:58.830Z,17.50
2018-04-12T11:40:26.730Z,17.50
2018-04-12T11:42:54.870Z,17.70
2018-04-12T11:45:22.364Z,18.30
2018-04-12T11:47:53.235Z,18.80
2018-04-12T11:50:21.505Z,18.80
2018-04-12T11:52:49.817Z,18.90
2018-04-12T11:55:17.323Z,18.90
2018-04-12T11:57:44.803Z,19.30
2018-04-12T12:00:13.084Z,19.70
2018-04-12T12:02:41.338Z,19.20
2018-04-12T12:05:09.081Z,19.20
2018-04-12T12:07:36.613Z,19.30
2018-04-12T12:10:04.197Z,19.00
2018-04-12T12:12:31.695Z,19.30
2018-04-12T12:14:59.202Z,19.50
2018-04-12T12:17:26.977Z,19.60
2018-04-12T12:19:54.506Z,19.70
2018-04-12T12:22:22.079Z,19.50
2018-04-12T12:24:49.561Z,19.70
2018-04-12T12:27:17.056Z,19.70
2018-04-12T12:29:44.628Z,19.70
2018-04-12T12:32:12.905Z,19.90
2018-04-12T12:34:41.167Z,19.90
2018-04-12T12:37:08.689Z,19.90
2018-04-12T12:39:36.179Z,19.70
2018-04-12T12:42:03.809Z,20.00
2018-04-12T12:44:31.309Z,19.90
2018-04-12T12:46:58.804Z,19.90
2018-04-12T12:49:26.296Z,19.70
2018-04-12T12:51:53.842Z,19.60
2018-04-12T12:54:22.120Z,19.70
2018-04-12T12:56:49.625Z,19.70
2018-04-12T12:59:17.150Z,19.70
2018-04-12T13:01:44.708Z,19.80
2018-04-12T13:04:12.224Z,19.90
2018-04-12T13:06:40.469Z,20.00
2018-04-12T13:09:07.958Z,20.00
2018-04-12T13:11:36.209Z,20.00
2018-04-12T13:14:04.417Z,20.00
2018-04-12T13:16:32.700Z,19.80
2018-04-12T13:19:00.982Z,19.90
2018-04-12T13:21:28.455Z,19.90
2018-04-12T13:23:55.981Z,20.10
2018-04-12T13:26:24.354Z,20.00
2018-04-12T13:28:51.939Z,20.00
2018-04-12T13:31:19.440Z,20.10
2018-04-12T13:33:46.952Z,20.10
2018-04-12T13:36:14.456Z,20.00
2018-04-12T13:38:41.973Z,19.70
2018-04-12T13:41:10.337Z,19.10
2018-04-12T13:43:37.807Z,19.00
2018-04-12T13:46:06.077Z,19.40
2018-04-12T13:48:34.327Z,19.60
2018-04-12T13:51:01.821Z,19.60
2018-04-12T13:53:30.085Z,19.10
2018-04-12T13:55:58.693Z,18.70
2018-04-12T13:58:26.200Z,18.70
2018-04-12T14:00:53.750Z,19.00
2018-04-12T14:03:21.250Z,18.70
2018-04-12T14:05:49.944Z,18.90
2018-04-12T14:08:18.312Z,19.10
2018-04-12T14:10:46.623Z,19.30
2018-04-12T14:13:14.153Z,19.30
2018-04-12T14:15:41.626Z,19.30
2018-04-12T14:18:09.149Z,19.10
2018-04-12T14:20:36.621Z,19.00
2018-04-12T14:23:04.110Z,19.00
2018-04-12T14:25:31.617Z,19.00
2018-04-12T14:27:59.135Z,19.00
2018-04-12T14:30:26.639Z,19.20
2018-04-12T14:32:54.123Z,19.10
2018-04-12T14:35:22.385Z,19.00
2018-04-12T14:37:49.866Z,19.00
2018-04-12T14:40:18.135Z,19.00
2018-04-12T14:42:46.386Z,18.90
2018-04-12T14:45:13.873Z,18.90
2018-04-12T14:47:42.118Z,18.60
2018-04-12T14:50:09.612Z,18.60
2018-04-12T14:52:37.969Z,18.60
2018-04-12T14:55:05.509Z,18.50
2018-04-12T14:57:32.999Z,18.60
2018-04-12T15:00:00.474Z,18.70
2018-04-12T15:02:28.733Z,18.60
2018-04-12T15:04:56.237Z,18.60
2018-04-12T15:07:23.777Z,18.70
2018-04-12T15:09:51.588Z,18.80
2018-04-12T15:12:19.346Z,18.70
2018-04-12T15:14:46.826Z,18.70
2018-04-12T15:17:14.330Z,18.70
2018-04-12T15:19:41.801Z,18.70
2018-04-12T15:22:09.284Z,18.80
2018-04-12T15:24:36.752Z,18.80
2018-04-12T15:27:04.272Z,18.70
2018-04-12T15:29:31.769Z,18.80
2018-04-12T15:31:59.273Z,18.80
2018-04-12T15:34:27.530Z,18.90
2018-04-12T15:36:55.065Z,18.80
2018-04-12T15:39:22.534Z,19.00
2018-04-12T15:41:50.024Z,19.00
2018-04-12T15:44:17.519Z,19.00
2018-04-12T15:46:44.986Z,18.90
2018-04-12T15:49:12.477Z,18.90
2018-04-12T15:51:39.960Z,18.80
2018-04-12T15:54:08.226Z,18.80
2018-04-12T15:56:35.765Z,18.80
2018-04-12T15:59:03.257Z,18.90
2018-04-12T16:01:31.533Z,18.60
2018-04-12T16:03:59.781Z,18.40
2018-04-12T16:06:28.477Z,18.40
2018-04-12T16:08:55.961Z,18.30
2018-04-12T16:11:24.241Z,18.40
2018-04-12T16:13:52.479Z,18.40
2018-04-12T16:16:22.736Z,18.40
2018-04-12T16:18:51.038Z,18.40
2018-04-12T16:21:18.533Z,18.40
2018-04-12T16:23:48.671Z,18.30
2018-04-12T16:26:16.211Z,18.30
2018-04-12T16:28:43.697Z,18.40
2018-04-12T16:31:11.980Z,18.50
2018-04-12T16:33:39.709Z,18.50
2018-04-12T16:36:07.192Z,18.40
2018-04-12T16:38:34.736Z,18.40
2018-04-12T16:41:02.209Z,18.40
2018-04-12T16:43:29.716Z,18.30
2018-04-12T16:45:57.314Z,18.30
2018-04-12T16:48:24.788Z,18.30
2018-04-12T16:50:52.278Z,18.30
2018-04-12T16:53:19.781Z,18.30
2018-04-12T16:55:47.282Z,18.30
2018-04-12T16:58:14.796Z,18.40
2018-04-12T17:00:42.295Z,18.30
2018-04-12T17:03:09.823Z,18.30
2018-04-12T17:05:37.338Z,18.30
2018-04-12T17:08:04.837Z,18.40
2018-04-12T17:10:32.371Z,18.40
2018-04-12T17:12:59.853Z,18.40
2018-04-12T17:15:28.182Z,18.40
2018-04-12T17:17:59.654Z,18.30
2018-04-12T17:20:27.250Z,18.30
2018-04-12T17:22:55.051Z,18.20
2018-04-12T17:25:23.315Z,18.00
2018-04-12T17:27:50.809Z,17.90
2018-04-12T17:30:18.284Z,17.80
2018-04-12T17:32:45.773Z,17.70
2018-04-12T17:35:13.301Z,17.60
2018-04-12T17:37:40.818Z,17.50
2018-04-12T17:40:09.211Z,17.20
2018-04-12T17:42:37.457Z,17.10
2018-04-12T17:45:04.951Z,17.10
2018-04-12T17:47:33.299Z,16.90
2018-04-12T17:50:00.773Z,16.90
2018-04-12T17:52:28.547Z,16.80
2018-04-12T17:54:56.843Z,16.70
2018-04-12T17:57:24.338Z,16.70
2018-04-12T17:59:51.876Z,16.70
2018-04-12T18:02:19.363Z,16.60
2018-04-12T18:04:46.985Z,16.50
2018-04-12T18:07:14.497Z,16.50
2018-04-12T18:09:42.007Z,16.40
2018-04-12T18:12:09.484Z,16.30
2018-04-12T18:14:37.019Z,16.30
2018-04-12T18:17:04.512Z,16.10
2018-04-12T18:19:32.020Z,16.10
2018-04-12T18:22:00.252Z,15.80
2018-04-12T18:24:27.737Z,15.80
2018-04-12T18:26:55.211Z,15.70
2018-04-12T18:29:22.693Z,15.60
2018-04-12T18:31:50.173Z,15.50
2018-04-12T18:34:17.641Z,15.40
2018-04-12T18:36:45.720Z,15.40
2018-04-12T18:39:13.175Z,15.30
2018-04-12T18:41:40.688Z,15.20
2018-04-12T18:44:08.940Z,15.00
2018-04-12T18:46:36.481Z,15.00
2018-04-12T18:49:03.976Z,14.90
2018-04-12T18:51:32.418Z,14.70
2018-04-12T18:53:59.985Z,14.70
2018-04-12T18:56:27.485Z,14.60
2018-04-12T18:58:55.854Z,14.40
2018-04-12T19:01:23.570Z,14.40
2018-04-12T19:03:51.082Z,14.30
2018-04-12T19:06:19.415Z,14.10
2018-04-12T19:08:48.476Z,14.10
2018-04-12T19:11:16.172Z,14.10
2018-04-12T19:13:44.409Z,13.90
2018-04-12T19:16:12.722Z,13.70
2018-04-12T19:18:40.226Z,13.60
2018-04-12T19:21:08.496Z,13.40
2018-04-12T19:23:36.771Z,13.30
2018-04-12T19:26:04.271Z,13.20
2018-04-12T19:28:32.806Z,13.00
2018-04-12T19:31:00.647Z,13.00
2018-04-12T19:33:28.432Z,12.90
2018-04-12T19:35:56.096Z,12.70
2018-04-12T19:38:23.626Z,12.60
2018-04-12T19:40:51.423Z,12.40
2018-04-12T19:43:19.442Z,12.20
2018-04-12T19:45:47.344Z,12.00
2018-04-12T19:48:15.173Z,11.90
2018-04-12T19:50:42.672Z,11.70
2018-04-12T19:53:10.178Z,11.60
2018-04-12T19:55:38.893Z,11.30
2018-04-12T19:58:06.547Z,11.30
2018-04-12T20:00:34.034Z,11.20
2018-04-12T20:03:01.497Z,11.10
2018-04-12T20:05:29.058Z,11.00
2018-04-12T20:07:56.610Z,10.90
2018-04-12T20:10:24.847Z,10.80
2018-04-12T20:12:53.079Z,10.70
2018-04-12T20:15:20.576Z,10.70
2018-04-12T20:17:48.833Z,10.70
2018-04-12T20:20:16.330Z,10.70
2018-04-12T20:22:44.633Z,10.60
2018-04-12T20:25:12.088Z,10.60
2018-04-12T20:27:39.728Z,10.60
2018-04-12T20:30:07.975Z,10.50
2018-04-12T20:32:35.501Z,10.50
2018-04-12T20:35:02.991Z,10.60
2018-04-12T20:37:31.252Z,10.80
2018-04-12T20:39:58.721Z,10.70
2018-04-12T20:42:26.213Z,10.70
2018-04-12T20:44:53.709Z,10.80
2018-04-12T20:47:21.202Z,10.70
2018-04-12T20:49:48.695Z,10.60
2018-04-12T20:52:16.182Z,10.60
2018-04-12T20:54:43.670Z,10.60
2018-04-12T20:57:11.142Z,10.40
2018-04-12T20:59:38.629Z,10.30
2018-04-12T21:02:06.116Z,10.10
2018-04-12T21:04:33.695Z,10.00
2018-04-12T21:07:01.197Z,10.00
2018-04-12T21:09:29.439Z,9.80
2018-04-12T21:11:56.972Z,9.80
2018-04-12T21:14:24.680Z,9.60
2018-04-12T21:16:52.096Z,9.60
2018-04-12T21:19:19.585Z,9.60
2018-04-12T21:21:47.059Z,9.60
2018-04-12T21:24:14.556Z,9.50
2018-04-12T21:26:42.031Z,9.50
2018-04-12T21:29:09.507Z,9.70
2018-04-12T21:31:37.761Z,9.60
2018-04-12T21:34:05.232Z,9.60
2018-04-12T21:36:32.701Z,9.50
2018-04-12T21:39:00.183Z,9.40
2018-04-12T21:41:27.664Z,9.50
2018-04-12T21:43:55.898Z,9.30
2018-04-12T21:46:23.467Z,9.20
2018-04-12T21:48:50.948Z,9.30
2018-04-12T21:51:18.469Z,9.20
2018-04-12T21:53:45.947Z,9.10
2018-04-12T21:56:13.510Z,8.90
2018-04-12T21:58:41.780Z,8.80
2018-04-12T22:01:09.257Z,8.80
2018-04-12T22:03:37.595Z,8.70
2018-04-12T22:06:05.087Z,8.70
2018-04-12T22:08:32.563Z,8.60
2018-04-12T22:11:00.816Z,8.40
2018-04-12T22:13:28.349Z,8.40
2018-04-12T22:15:55.825Z,8.40
2018-04-12T22:18:24.090Z,8.20
2018-04-12T22:20:51.588Z,8.20
2018-04-12T22:23:19.164Z,8.10
2018-04-12T22:25:46.633Z,8.00
2018-04-12T22:28:14.136Z,7.90
2018-04-12T22:30:41.648Z,7.80
2018-04-12T22:33:09.144Z,7.70
2018-04-12T22:35:36.617Z,7.60
2018-04-12T22:38:04.110Z,7.50
2018-04-12T22:40:32.340Z,7.40
2018-04-12T22:42:59.861Z,7.40
2018-04-12T22:45:27.321Z,7.40
2018-04-12T22:47:54.850Z,7.40
2018-04-12T22:50:22.369Z,7.40
2018-04-12T22:52:49.856Z,7.40
2018-04-12T22:55:17.343Z,7.40
2018-04-12T22:57:45.581Z,7.20
2018-04-12T23:00:13.060Z,7.20
2018-04-12T23:02:40.518Z,7.20
2018-04-12T23:05:08.026Z,7.20
2018-04-12T23:07:35.496Z,7.20
2018-04-12T23:10:02.970Z,7.20
2018-04-12T23:12:30.466Z,7.30
2018-04-12T23:14:58.876Z,7.50
2018-04-12T23:17:26.357Z,7.50
2018-04-12T23:19:53.840Z,7.40
2018-04-12T23:22:21.345Z,7.20
2018-04-12T23:24:48.823Z,7.00
2018-04-12T23:27:16.280Z,6.90
2018-04-12T23:29:43.766Z,6.80
2018-04-12T23:32:11.241Z,6.80
2018-04-12T23:34:38.778Z,6.70
2018-04-12T23:37:06.377Z,6.60
2018-04-12T23:39:33.868Z,6.60
2018-04-12T23:42:01.357Z,6.50
2018-04-12T23:44:28.875Z,6.60
2018-04-12T23:46:57.112Z,6.60
2018-04-12T23:49:24.633Z,6.60
2018-04-12T23:51:52.126Z,6.50
2018-04-12T23:54:19.621Z,6.60
2018-04-12T23:56:47.849Z,6.60
2018-04-12T23:59:15.337Z,6.60
